sensor_id;sensor_type;location;lat;lon;timestamp;temperature;humidity
37240;DHT22;23130;48.760;9.178;2024-03-25T00:01:54;4.40;99.90
37240;DHT22;23130;48.760;9.178;2024-03-25T00:04:19;4.30;99.90
37240;DHT22;23130;48.760;9.178;2024-03-25T00:06:47;4.40;99.90
37240;DHT22;23130;48.760;9.178;2024-03-25T00:09:13;4.30;99.90
37240;DHT22;23130;48.760;9.178;2024-03-25T00:11:42;4.30;99.90
37240;DHT22;23130;48.760;9.178;2024-03-25T00:14:08;4.30;99.90
37240;DHT22;23130;48.760;9.178;2024-03-25T00:16:35;4.30;99.90
37240;DHT22;23130;48.760;9.178;2024-03-25T00:19:01;4.30;99.90
37240;DHT22;23130;48.760;9.178;2024-03-25T00:21:26;4.40;99.90
37240;DHT22;23130;48.760;9.178;2024-03-25T00:23:53;4.40;99.90
37240;DHT22;23130;48.760;9.178;2024-03-25T00:26:22;4.40;99.90
37240;DHT22;23130;48.760;9.178;2024-03-25T00:28:48;4.40;99.90
37240;DHT22;23130;48.760;9.178;2024-03-25T00:31:15;4.40;99.90
37240;DHT22;23130;48.760;9.178;2024-03-25T00:33:42;4.40;99.90
37240;DHT22;23130;48.760;9.178;2024-03-25T00:36:08;4.30;99.90
37240;DHT22;23130;48.760;9.178;2024-03-25T00:38:33;4.30;99.90
37240;DHT22;23130;48.760;9.178;2024-03-25T00:40:59;4.30;99.90
37240;DHT22;23130;48.760;9.178;2024-03-25T00:43:24;4.30;99.90
37240;DHT22;23130;48.760;9.178;2024-03-25T00:45:49;4.20;99.90
37240;DHT22;23130;48.760;9.178;2024-03-25T00:48:15;4.30;99.90
37240;DHT22;23130;48.760;9.178;2024-03-25T00:50:40;4.30;99.90
37240;DHT22;23130;48.760;9.178;2024-03-25T00:53:06;4.30;99.90
37240;DHT22;23130;48.760;9.178;2024-03-25T00:55:33;4.20;99.90
37240;DHT22;23130;48.760;9.178;2024-03-25T00:58:00;4.20;99.90
37240;DHT22;23130;48.760;9.178;2024-03-25T01:00:25;4.20;99.90
37240;DHT22;23130;48.760;9.178;2024-03-25T01:02:51;4.20;99.90
37240;DHT22;23130;48.760;9.178;2024-03-25T01:05:16;4.10;99.90
37240;DHT22;23130;48.760;9.178;2024-03-25T01:07:42;4.10;99.90
37240;DHT22;23130;48.760;9.178;2024-03-25T01:10:09;4.10;99.90
37240;DHT22;23130;48.760;9.178;2024-03-25T01:12:34;4.10;99.90
37240;DHT22;23130;48.760;9.178;2024-03-25T01:15:00;4.00;99.90
37240;DHT22;23130;48.760;9.178;2024-03-25T01:17:27;4.00;99.90
37240;DHT22;23130;48.760;9.178;2024-03-25T01:19:53;4.00;99.90
37240;DHT22;23130;48.760;9.178;2024-03-25T01:22:18;4.00;99.90
37240;DHT22;23130;48.760;9.178;2024-03-25T01:24:44;4.00;99.90
37240;DHT22;23130;48.760;9.178;2024-03-25T01:27:09;4.10;99.90
37240;DHT22;23130;48.760;9.178;2024-03-25T01:29:35;4.00;99.90
37240;DHT22;23130;48.760;9.178;2024-03-25T01:32:00;4.00;99.90
37240;DHT22;23130;48.760;9.178;2024-03-25T01:34:27;4.00;99.90
37240;DHT22;23130;48.760;9.178;2024-03-25T01:36:53;4.10;99.90
37240;DHT22;23130;48.760;9.178;2024-03-25T01:39:20;4.00;99.90
37240;DHT22;23130;48.760;9.178;2024-03-25T01:41:45;4.00;99.90
37240;DHT22;23130;48.760;9.178;2024-03-25T01:44:11;4.00;99.90
37240;DHT22;23130;48.760;9.178;2024-03-25T01:46:37;4.00;99.90
37240;DHT22;23130;48.760;9.178;2024-03-25T01:49:03;4.00;99.90
37240;DHT22;23130;48.760;9.178;2024-03-25T01:51:28;4.00;99.90
37240;DHT22;23130;48.760;9.178;2024-03-25T01:53:54;4.00;99.90
37240;DHT22;23130;48.760;9.178;2024-03-25T01:56:20;4.00;99.90
37240;DHT22;23130;48.760;9.178;2024-03-25T01:58:46;3.90;99.90
37240;DHT22;23130;48.760;9.178;2024-03-25T02:01:12;3.90;99.90
37240;DHT22;23130;48.760;9.178;2024-03-25T02:03:42;3.90;99.90
37240;DHT22;23130;48.760;9.178;2024-03-25T02:06:10;3.90;99.90
37240;DHT22;23130;48.760;9.178;2024-03-25T02:08:37;3.90;99.90
37240;DHT22;23130;48.760;9.178;2024-03-25T02:11:03;3.90;99.90
37240;DHT22;23130;48.760;9.178;2024-03-25T02:13:29;3.90;99.90
37240;DHT22;23130;48.760;9.178;2024-03-25T02:15:55;3.90;99.90
37240;DHT22;23130;48.760;9.178;2024-03-25T02:18:20;4.00;99.90
37240;DHT22;23130;48.760;9.178;2024-03-25T02:20:46;4.00;99.90
37240;DHT22;23130;48.760;9.178;2024-03-25T02:23:12;4.00;99.90
37240;DHT22;23130;48.760;9.178;2024-03-25T02:25:38;4.00;99.90
37240;DHT22;23130;48.760;9.178;2024-03-25T02:28:03;4.00;99.90
37240;DHT22;23130;48.760;9.178;2024-03-25T02:30:29;4.00;99.90
37240;DHT22;23130;48.760;9.178;2024-03-25T02:32:54;4.10;99.90
37240;DHT22;23130;48.760;9.178;2024-03-25T02:35:20;4.00;99.90
37240;DHT22;23130;48.760;9.178;2024-03-25T02:37:46;4.10;99.90
37240;DHT22;23130;48.760;9.178;2024-03-25T02:40:12;4.10;99.90
37240;DHT22;23130;48.760;9.178;2024-03-25T02:42:37;4.10;99.90
37240;DHT22;23130;48.760;9.178;2024-03-25T02:45:06;4.20;99.90
37240;DHT22;23130;48.760;9.178;2024-03-25T02:47:31;4.20;99.90
37240;DHT22;23130;48.760;9.178;2024-03-25T02:49:57;4.20;99.90
37240;DHT22;23130;48.760;9.178;2024-03-25T02:52:22;4.20;99.90
37240;DHT22;23130;48.760;9.178;2024-03-25T02:54:48;4.20;99.90
37240;DHT22;23130;48.760;9.178;2024-03-25T02:57:15;4.20;99.90
37240;DHT22;23130;48.760;9.178;2024-03-25T02:59:40;4.20;99.90
37240;DHT22;23130;48.760;9.178;2024-03-25T03:02:07;4.20;99.90
37240;DHT22;23130;48.760;9.178;2024-03-25T03:04:33;4.20;99.90
37240;DHT22;23130;48.760;9.178;2024-03-25T03:06:58;4.20;99.90
37240;DHT22;23130;48.760;9.178;2024-03-25T03:09:24;4.20;99.90
37240;DHT22;23130;48.760;9.178;2024-03-25T03:11:49;4.20;99.90
37240;DHT22;23130;48.760;9.178;2024-03-25T03:14:15;4.20;99.90
37240;DHT22;23130;48.760;9.178;2024-03-25T03:16:43;4.20;99.90
37240;DHT22;23130;48.760;9.178;2024-03-25T03:19:08;4.20;99.90
37240;DHT22;23130;48.760;9.178;2024-03-25T03:21:33;4.10;99.90
37240;DHT22;23130;48.760;9.178;2024-03-25T03:23:59;4.20;99.90
37240;DHT22;23130;48.760;9.178;2024-03-25T03:26:26;4.10;99.90
37240;DHT22;23130;48.760;9.178;2024-03-25T03:28:58;4.10;99.90
37240;DHT22;23130;48.760;9.178;2024-03-25T03:31:25;4.10;99.90
37240;DHT22;23130;48.760;9.178;2024-03-25T03:33:50;4.00;99.90
37240;DHT22;23130;48.760;9.178;2024-03-25T03:36:16;4.00;99.90
37240;DHT22;23130;48.760;9.178;2024-03-25T03:38:42;3.90;99.90
37240;DHT22;23130;48.760;9.178;2024-03-25T03:41:08;3.80;99.90
37240;DHT22;23130;48.760;9.178;2024-03-25T03:43:33;3.80;99.90
37240;DHT22;23130;48.760;9.178;2024-03-25T03:45:59;3.70;99.90
37240;DHT22;23130;48.760;9.178;2024-03-25T03:48:24;3.60;99.90
37240;DHT22;23130;48.760;9.178;2024-03-25T03:50:50;3.60;99.90
37240;DHT22;23130;48.760;9.178;2024-03-25T03:53:15;3.70;99.90
37240;DHT22;23130;48.760;9.178;2024-03-25T03:55:40;3.70;99.90
37240;DHT22;23130;48.760;9.178;2024-03-25T03:58:06;3.70;99.90
37240;DHT22;23130;48.760;9.178;2024-03-25T04:00:34;3.70;99.90
37240;DHT22;23130;48.760;9.178;2024-03-25T04:03:01;3.70;99.90
37240;DHT22;23130;48.760;9.178;2024-03-25T04:05:29;3.80;99.90
37240;DHT22;23130;48.760;9.178;2024-03-25T04:07:55;3.80;99.90
37240;DHT22;23130;48.760;9.178;2024-03-25T04:10:22;3.80;99.90
37240;DHT22;23130;48.760;9.178;2024-03-25T04:12:47;3.80;99.90
37240;DHT22;23130;48.760;9.178;2024-03-25T04:15:13;3.70;99.90
37240;DHT22;23130;48.760;9.178;2024-03-25T04:17:45;3.70;99.90
37240;DHT22;23130;48.760;9.178;2024-03-25T04:20:13;3.70;99.90
37240;DHT22;23130;48.760;9.178;2024-03-25T04:22:41;3.70;99.90
37240;DHT22;23130;48.760;9.178;2024-03-25T04:25:08;3.70;99.90
37240;DHT22;23130;48.760;9.178;2024-03-25T04:27:37;3.70;99.90
37240;DHT22;23130;48.760;9.178;2024-03-25T04:30:03;3.70;99.90
37240;DHT22;23130;48.760;9.178;2024-03-25T04:32:29;3.60;99.90
37240;DHT22;23130;48.760;9.178;2024-03-25T04:34:54;3.60;99.90
37240;DHT22;23130;48.760;9.178;2024-03-25T04:37:20;3.60;99.90
37240;DHT22;23130;48.760;9.178;2024-03-25T04:39:47;3.60;99.90
37240;DHT22;23130;48.760;9.178;2024-03-25T04:42:13;3.60;99.90
37240;DHT22;23130;48.760;9.178;2024-03-25T04:44:39;3.70;99.90
37240;DHT22;23130;48.760;9.178;2024-03-25T04:47:05;3.70;99.90
37240;DHT22;23130;48.760;9.178;2024-03-25T04:49:30;3.70;99.90
37240;DHT22;23130;48.760;9.178;2024-03-25T04:51:56;3.60;99.90
37240;DHT22;23130;48.760;9.178;2024-03-25T04:54:21;3.60;99.90
37240;DHT22;23130;48.760;9.178;2024-03-25T04:56:47;3.60;99.90
37240;DHT22;23130;48.760;9.178;2024-03-25T04:59:13;3.60;99.90
37240;DHT22;23130;48.760;9.178;2024-03-25T05:01:38;3.70;99.90
37240;DHT22;23130;48.760;9.178;2024-03-25T05:04:04;3.70;99.90
37240;DHT22;23130;48.760;9.178;2024-03-25T05:06:30;3.70;99.90
37240;DHT22;23130;48.760;9.178;2024-03-25T05:08:56;3.70;99.90
37240;DHT22;23130;48.760;9.178;2024-03-25T05:11:21;3.70;99.90
37240;DHT22;23130;48.760;9.178;2024-03-25T05:13:47;3.70;99.90
37240;DHT22;23130;48.760;9.178;2024-03-25T05:16:13;3.60;99.90
37240;DHT22;23130;48.760;9.178;2024-03-25T05:18:40;3.60;99.90
37240;DHT22;23130;48.760;9.178;2024-03-25T05:21:05;3.60;99.90
37240;DHT22;23130;48.760;9.178;2024-03-25T05:23:30;3.50;99.90
37240;DHT22;23130;48.760;9.178;2024-03-25T05:25:56;3.50;99.90
37240;DHT22;23130;48.760;9.178;2024-03-25T05:28:23;3.60;99.90
37240;DHT22;23130;48.760;9.178;2024-03-25T05:30:50;3.60;99.90
37240;DHT22;23130;48.760;9.178;2024-03-25T05:33:15;3.70;99.90
37240;DHT22;23130;48.760;9.178;2024-03-25T05:35:41;3.70;99.90
37240;DHT22;23130;48.760;9.178;2024-03-25T05:38:06;3.80;99.90
37240;DHT22;23130;48.760;9.178;2024-03-25T05:40:32;3.80;99.90
37240;DHT22;23130;48.760;9.178;2024-03-25T05:42:58;3.80;99.90
37240;DHT22;23130;48.760;9.178;2024-03-25T05:45:23;3.90;99.90
37240;DHT22;23130;48.760;9.178;2024-03-25T05:47:50;3.90;99.90
37240;DHT22;23130;48.760;9.178;2024-03-25T05:50:15;4.00;99.90
37240;DHT22;23130;48.760;9.178;2024-03-25T05:52:40;4.00;99.90
37240;DHT22;23130;48.760;9.178;2024-03-25T05:55:06;4.10;99.90
37240;DHT22;23130;48.760;9.178;2024-03-25T05:57:32;4.20;99.90
37240;DHT22;23130;48.760;9.178;2024-03-25T05:59:57;4.30;99.90
37240;DHT22;23130;48.760;9.178;2024-03-25T06:02:23;4.30;99.90
37240;DHT22;23130;48.760;9.178;2024-03-25T06:04:49;4.30;99.90
37240;DHT22;23130;48.760;9.178;2024-03-25T06:07:15;4.30;99.90
37240;DHT22;23130;48.760;9.178;2024-03-25T06:09:40;4.20;99.90
37240;DHT22;23130;48.760;9.178;2024-03-25T06:12:07;4.20;99.90
37240;DHT22;23130;48.760;9.178;2024-03-25T06:14:33;4.10;99.90
37240;DHT22;23130;48.760;9.178;2024-03-25T06:16:59;4.10;99.90
37240;DHT22;23130;48.760;9.178;2024-03-25T06:19:24;4.20;99.90
37240;DHT22;23130;48.760;9.178;2024-03-25T06:21:50;4.30;99.90
37240;DHT22;23130;48.760;9.178;2024-03-25T06:24:17;4.40;99.90
37240;DHT22;23130;48.760;9.178;2024-03-25T06:26:43;4.50;99.90
37240;DHT22;23130;48.760;9.178;2024-03-25T06:29:09;4.60;99.90
37240;DHT22;23130;48.760;9.178;2024-03-25T06:31:34;5.00;99.90
37240;DHT22;23130;48.760;9.178;2024-03-25T06:34:18;5.40;99.90
37240;DHT22;23130;48.760;9.178;2024-03-25T06:36:49;6.30;99.90
37240;DHT22;23130;48.760;9.178;2024-03-25T06:39:15;6.80;99.90
37240;DHT22;23130;48.760;9.178;2024-03-25T06:41:40;7.00;99.90
37240;DHT22;23130;48.760;9.178;2024-03-25T06:44:06;7.10;99.90
37240;DHT22;23130;48.760;9.178;2024-03-25T06:46:32;7.10;99.90
37240;DHT22;23130;48.760;9.178;2024-03-25T06:48:57;7.20;99.90
37240;DHT22;23130;48.760;9.178;2024-03-25T06:51:23;7.00;99.90
37240;DHT22;23130;48.760;9.178;2024-03-25T06:53:48;6.90;99.90
37240;DHT22;23130;48.760;9.178;2024-03-25T06:56:14;7.00;99.90
37240;DHT22;23130;48.760;9.178;2024-03-25T06:58:41;6.80;99.90
37240;DHT22;23130;48.760;9.178;2024-03-25T07:01:07;6.80;99.90
37240;DHT22;23130;48.760;9.178;2024-03-25T07:03:33;6.90;99.90
37240;DHT22;23130;48.760;9.178;2024-03-25T07:05:59;7.00;99.90
37240;DHT22;23130;48.760;9.178;2024-03-25T07:08:27;7.20;99.90
37240;DHT22;23130;48.760;9.178;2024-03-25T07:10:54;7.20;99.90
37240;DHT22;23130;48.760;9.178;2024-03-25T07:13:20;7.40;99.90
37240;DHT22;23130;48.760;9.178;2024-03-25T07:15:45;7.20;99.90
37240;DHT22;23130;48.760;9.178;2024-03-25T07:18:11;7.00;99.90
37240;DHT22;23130;48.760;9.178;2024-03-25T07:20:39;6.80;99.90
37240;DHT22;23130;48.760;9.178;2024-03-25T07:23:04;6.80;99.90
37240;DHT22;23130;48.760;9.178;2024-03-25T07:25:30;7.20;99.90
37240;DHT22;23130;48.760;9.178;2024-03-25T07:27:55;8.00;99.90
37240;DHT22;23130;48.760;9.178;2024-03-25T07:30:21;8.80;99.90
37240;DHT22;23130;48.760;9.178;2024-03-25T07:32:56;9.60;99.90
37240;DHT22;23130;48.760;9.178;2024-03-25T07:35:22;10.00;99.90
37240;DHT22;23130;48.760;9.178;2024-03-25T07:37:48;10.20;99.90
37240;DHT22;23130;48.760;9.178;2024-03-25T07:40:20;9.90;99.90
37240;DHT22;23130;48.760;9.178;2024-03-25T07:42:45;9.60;99.90
37240;DHT22;23130;48.760;9.178;2024-03-25T07:45:11;9.30;99.90
37240;DHT22;23130;48.760;9.178;2024-03-25T07:47:36;9.00;99.90
37240;DHT22;23130;48.760;9.178;2024-03-25T07:50:02;8.70;99.90
37240;DHT22;23130;48.760;9.178;2024-03-25T07:52:28;8.60;99.90
37240;DHT22;23130;48.760;9.178;2024-03-25T07:54:55;8.40;99.90
37240;DHT22;23130;48.760;9.178;2024-03-25T07:57:21;8.30;99.90
37240;DHT22;23130;48.760;9.178;2024-03-25T07:59:46;8.10;99.90
37240;DHT22;23130;48.760;9.178;2024-03-25T08:02:12;8.10;99.90
37240;DHT22;23130;48.760;9.178;2024-03-25T08:04:39;8.00;99.90
37240;DHT22;23130;48.760;9.178;2024-03-25T08:07:04;8.10;99.90
37240;DHT22;23130;48.760;9.178;2024-03-25T08:09:31;8.10;99.90
37240;DHT22;23130;48.760;9.178;2024-03-25T08:11:57;8.20;99.90
37240;DHT22;23130;48.760;9.178;2024-03-25T08:14:22;8.20;99.90
37240;DHT22;23130;48.760;9.178;2024-03-25T08:16:49;8.30;99.90
37240;DHT22;23130;48.760;9.178;2024-03-25T08:19:18;8.30;99.90
37240;DHT22;23130;48.760;9.178;2024-03-25T08:21:43;8.20;99.90
37240;DHT22;23130;48.760;9.178;2024-03-25T08:24:09;8.20;99.90
37240;DHT22;23130;48.760;9.178;2024-03-25T08:26:34;8.10;99.90
37240;DHT22;23130;48.760;9.178;2024-03-25T08:29:01;8.00;99.90
37240;DHT22;23130;48.760;9.178;2024-03-25T08:31:26;8.00;99.90
37240;DHT22;23130;48.760;9.178;2024-03-25T08:33:52;8.20;99.90
37240;DHT22;23130;48.760;9.178;2024-03-25T08:36:17;8.50;99.90
37240;DHT22;23130;48.760;9.178;2024-03-25T08:38:43;8.80;99.90
37240;DHT22;23130;48.760;9.178;2024-03-25T08:41:10;9.20;99.90
37240;DHT22;23130;48.760;9.178;2024-03-25T08:43:35;9.50;99.90
37240;DHT22;23130;48.760;9.178;2024-03-25T08:46:01;9.50;99.90
37240;DHT22;23130;48.760;9.178;2024-03-25T08:48:26;9.50;99.90
37240;DHT22;23130;48.760;9.178;2024-03-25T08:50:52;9.40;99.90
37240;DHT22;23130;48.760;9.178;2024-03-25T08:53:17;9.50;99.90
37240;DHT22;23130;48.760;9.178;2024-03-25T08:55:45;9.60;99.90
37240;DHT22;23130;48.760;9.178;2024-03-25T08:58:14;9.70;99.90
37240;DHT22;23130;48.760;9.178;2024-03-25T09:00:41;9.90;99.90
37240;DHT22;23130;48.760;9.178;2024-03-25T09:03:06;9.80;99.90
37240;DHT22;23130;48.760;9.178;2024-03-25T09:05:34;9.80;99.90
37240;DHT22;23130;48.760;9.178;2024-03-25T09:08:03;9.80;99.90
37240;DHT22;23130;48.760;9.178;2024-03-25T09:10:31;9.70;99.90
37240;DHT22;23130;48.760;9.178;2024-03-25T09:13:15;9.30;99.90
37240;DHT22;23130;48.760;9.178;2024-03-25T09:15:40;9.30;99.90
37240;DHT22;23130;48.760;9.178;2024-03-25T09:18:09;9.40;99.90
37240;DHT22;23130;48.760;9.178;2024-03-25T09:20:35;9.30;99.90
37240;DHT22;23130;48.760;9.178;2024-03-25T09:23:00;9.30;99.90
37240;DHT22;23130;48.760;9.178;2024-03-25T09:25:25;9.30;99.90
37240;DHT22;23130;48.760;9.178;2024-03-25T09:27:51;9.20;99.90
37240;DHT22;23130;48.760;9.178;2024-03-25T09:30:17;9.20;99.90
37240;DHT22;23130;48.760;9.178;2024-03-25T09:32:48;9.20;99.90
37240;DHT22;23130;48.760;9.178;2024-03-25T09:35:14;9.40;99.90
37240;DHT22;23130;48.760;9.178;2024-03-25T09:37:39;9.40;99.90
37240;DHT22;23130;48.760;9.178;2024-03-25T09:40:05;9.50;99.90
37240;DHT22;23130;48.760;9.178;2024-03-25T09:42:34;9.30;99.90
37240;DHT22;23130;48.760;9.178;2024-03-25T09:44:59;9.30;99.90
37240;DHT22;23130;48.760;9.178;2024-03-25T09:47:25;9.30;99.90
37240;DHT22;23130;48.760;9.178;2024-03-25T09:49:52;9.40;99.90
37240;DHT22;23130;48.760;9.178;2024-03-25T09:52:19;9.40;99.90
37240;DHT22;23130;48.760;9.178;2024-03-25T09:54:45;9.60;99.90
37240;DHT22;23130;48.760;9.178;2024-03-25T09:57:10;9.70;99.90
37240;DHT22;23130;48.760;9.178;2024-03-25T09:59:36;9.80;99.90
37240;DHT22;23130;48.760;9.178;2024-03-25T10:02:02;9.80;99.90
37240;DHT22;23130;48.760;9.178;2024-03-25T10:04:29;9.80;99.90
37240;DHT22;23130;48.760;9.178;2024-03-25T10:06:55;9.70;99.90
37240;DHT22;23130;48.760;9.178;2024-03-25T10:09:20;9.70;99.90
37240;DHT22;23130;48.760;9.178;2024-03-25T10:11:49;9.80;99.90
37240;DHT22;23130;48.760;9.178;2024-03-25T10:14:17;10.00;99.90
37240;DHT22;23130;48.760;9.178;2024-03-25T10:16:43;10.10;99.90
37240;DHT22;23130;48.760;9.178;2024-03-25T10:19:09;10.20;99.90
37240;DHT22;23130;48.760;9.178;2024-03-25T10:21:34;10.20;99.90
37240;DHT22;23130;48.760;9.178;2024-03-25T10:24:03;10.10;99.90
37240;DHT22;23130;48.760;9.178;2024-03-25T10:26:30;10.10;99.90
37240;DHT22;23130;48.760;9.178;2024-03-25T10:29:00;10.10;99.90
37240;DHT22;23130;48.760;9.178;2024-03-25T10:31:26;10.10;99.90
37240;DHT22;23130;48.760;9.178;2024-03-25T10:33:51;9.90;99.90
37240;DHT22;23130;48.760;9.178;2024-03-25T10:36:19;9.90;99.90
37240;DHT22;23130;48.760;9.178;2024-03-25T10:38:45;9.80;99.90
37240;DHT22;23130;48.760;9.178;2024-03-25T10:41:11;9.70;99.90
37240;DHT22;23130;48.760;9.178;2024-03-25T10:43:37;9.70;99.90
37240;DHT22;23130;48.760;9.178;2024-03-25T10:46:03;9.70;99.90
37240;DHT22;23130;48.760;9.178;2024-03-25T10:48:34;9.70;99.90
37240;DHT22;23130;48.760;9.178;2024-03-25T10:51:01;9.80;99.90
37240;DHT22;23130;48.760;9.178;2024-03-25T10:53:27;9.90;99.90
37240;DHT22;23130;48.760;9.178;2024-03-25T10:55:54;10.00;99.90
37240;DHT22;23130;48.760;9.178;2024-03-25T10:58:21;10.20;99.90
37240;DHT22;23130;48.760;9.178;2024-03-25T11:00:46;10.30;99.90
37240;DHT22;23130;48.760;9.178;2024-03-25T11:03:13;10.40;99.90
37240;DHT22;23130;48.760;9.178;2024-03-25T11:05:40;10.50;99.90
37240;DHT22;23130;48.760;9.178;2024-03-25T11:08:09;10.70;99.90
37240;DHT22;23130;48.760;9.178;2024-03-25T11:10:39;10.70;99.90
37240;DHT22;23130;48.760;9.178;2024-03-25T11:13:09;10.60;99.90
37240;DHT22;23130;48.760;9.178;2024-03-25T11:15:40;10.70;99.90
37240;DHT22;23130;48.760;9.178;2024-03-25T11:18:11;10.80;99.90
37240;DHT22;23130;48.760;9.178;2024-03-25T11:20:38;10.80;99.90
37240;DHT22;23130;48.760;9.178;2024-03-25T11:23:11;10.80;99.90
37240;DHT22;23130;48.760;9.178;2024-03-25T11:25:37;10.90;99.90
37240;DHT22;23130;48.760;9.178;2024-03-25T11:28:02;11.00;99.90
37240;DHT22;23130;48.760;9.178;2024-03-25T11:30:29;11.00;99.90
37240;DHT22;23130;48.760;9.178;2024-03-25T11:32:55;11.20;99.90
37240;DHT22;23130;48.760;9.178;2024-03-25T11:35:20;11.40;99.90
37240;DHT22;23130;48.760;9.178;2024-03-25T11:37:46;11.50;99.90
37240;DHT22;23130;48.760;9.178;2024-03-25T11:40:12;11.40;99.90
37240;DHT22;23130;48.760;9.178;2024-03-25T11:42:40;11.40;99.90
37240;DHT22;23130;48.760;9.178;2024-03-25T11:45:13;11.40;99.90
37240;DHT22;23130;48.760;9.178;2024-03-25T11:47:40;11.50;99.90
37240;DHT22;23130;48.760;9.178;2024-03-25T11:50:07;11.60;99.90
37240;DHT22;23130;48.760;9.178;2024-03-25T11:52:34;11.50;99.90
37240;DHT22;23130;48.760;9.178;2024-03-25T11:55:00;11.30;99.90
37240;DHT22;23130;48.760;9.178;2024-03-25T11:57:25;11.50;99.90
37240;DHT22;23130;48.760;9.178;2024-03-25T11:59:51;11.80;99.90
37240;DHT22;23130;48.760;9.178;2024-03-25T12:02:16;12.00;99.90
37240;DHT22;23130;48.760;9.178;2024-03-25T12:04:42;11.90;99.90
37240;DHT22;23130;48.760;9.178;2024-03-25T12:07:10;11.80;99.90
37240;DHT22;23130;48.760;9.178;2024-03-25T12:09:35;11.50;99.90
37240;DHT22;23130;48.760;9.178;2024-03-25T12:12:19;11.40;99.90
37240;DHT22;23130;48.760;9.178;2024-03-25T12:14:45;11.20;99.90
37240;DHT22;23130;48.760;9.178;2024-03-25T12:17:10;10.90;99.90
37240;DHT22;23130;48.760;9.178;2024-03-25T12:19:35;10.80;99.90
37240;DHT22;23130;48.760;9.178;2024-03-25T12:22:01;10.60;99.90
37240;DHT22;23130;48.760;9.178;2024-03-25T12:24:28;10.60;99.90
37240;DHT22;23130;48.760;9.178;2024-03-25T12:26:54;10.50;99.90
37240;DHT22;23130;48.760;9.178;2024-03-25T12:29:20;10.50;99.90
37240;DHT22;23130;48.760;9.178;2024-03-25T12:31:55;10.60;99.90
37240;DHT22;23130;48.760;9.178;2024-03-25T12:34:21;10.60;99.90
37240;DHT22;23130;48.760;9.178;2024-03-25T12:36:50;10.70;99.90
37240;DHT22;23130;48.760;9.178;2024-03-25T12:39:16;10.80;99.90
37240;DHT22;23130;48.760;9.178;2024-03-25T12:41:41;10.70;99.90
37240;DHT22;23130;48.760;9.178;2024-03-25T12:44:07;10.90;99.90
37240;DHT22;23130;48.760;9.178;2024-03-25T12:46:32;11.10;99.90
37240;DHT22;23130;48.760;9.178;2024-03-25T12:48:59;11.40;99.90
37240;DHT22;23130;48.760;9.178;2024-03-25T12:51:24;11.60;99.60
37240;DHT22;23130;48.760;9.178;2024-03-25T12:53:50;11.50;99.90
37240;DHT22;23130;48.760;9.178;2024-03-25T12:56:16;11.70;99.90
37240;DHT22;23130;48.760;9.178;2024-03-25T12:58:41;11.40;97.20
37240;DHT22;23130;48.760;9.178;2024-03-25T13:01:07;11.20;97.90
37240;DHT22;23130;48.760;9.178;2024-03-25T13:03:32;11.10;97.10
37240;DHT22;23130;48.760;9.178;2024-03-25T13:05:58;11.10;98.50
37240;DHT22;23130;48.760;9.178;2024-03-25T13:08:24;11.20;97.50
37240;DHT22;23130;48.760;9.178;2024-03-25T13:10:50;11.20;97.30
37240;DHT22;23130;48.760;9.178;2024-03-25T13:13:15;11.10;97.20
37240;DHT22;23130;48.760;9.178;2024-03-25T13:15:42;11.10;98.80
37240;DHT22;23130;48.760;9.178;2024-03-25T13:18:08;11.10;99.70
37240;DHT22;23130;48.760;9.178;2024-03-25T13:20:34;11.10;98.50
37240;DHT22;23130;48.760;9.178;2024-03-25T13:22:59;11.20;97.90
37240;DHT22;23130;48.760;9.178;2024-03-25T13:25:25;11.30;99.10
37240;DHT22;23130;48.760;9.178;2024-03-25T13:27:52;11.30;98.60
37240;DHT22;23130;48.760;9.178;2024-03-25T13:30:18;11.30;99.10
37240;DHT22;23130;48.760;9.178;2024-03-25T13:32:43;11.30;98.50
37240;DHT22;23130;48.760;9.178;2024-03-25T13:35:13;11.40;97.20
37240;DHT22;23130;48.760;9.178;2024-03-25T13:37:38;11.30;97.50
37240;DHT22;23130;48.760;9.178;2024-03-25T13:40:04;11.10;98.20
37240;DHT22;23130;48.760;9.178;2024-03-25T13:42:31;11.10;97.80
37240;DHT22;23130;48.760;9.178;2024-03-25T13:44:56;11.10;98.50
37240;DHT22;23130;48.760;9.178;2024-03-25T13:47:23;11.10;98.50
37240;DHT22;23130;48.760;9.178;2024-03-25T13:49:48;11.10;98.10
37240;DHT22;23130;48.760;9.178;2024-03-25T13:52:14;11.20;98.90
37240;DHT22;23130;48.760;9.178;2024-03-25T13:54:39;11.20;98.20
37240;DHT22;23130;48.760;9.178;2024-03-25T13:57:05;11.20;97.80
37240;DHT22;23130;48.760;9.178;2024-03-25T13:59:30;11.20;98.30
37240;DHT22;23130;48.760;9.178;2024-03-25T14:01:56;11.30;98.80
37240;DHT22;23130;48.760;9.178;2024-03-25T14:04:21;11.40;97.70
37240;DHT22;23130;48.760;9.178;2024-03-25T14:06:46;11.40;98.70
37240;DHT22;23130;48.760;9.178;2024-03-25T14:09:26;11.30;97.80
37240;DHT22;23130;48.760;9.178;2024-03-25T14:11:52;11.30;97.20
37240;DHT22;23130;48.760;9.178;2024-03-25T14:14:17;11.20;96.50
37240;DHT22;23130;48.760;9.178;2024-03-25T14:16:43;11.10;97.00
37240;DHT22;23130;48.760;9.178;2024-03-25T14:19:10;11.00;97.20
37240;DHT22;23130;48.760;9.178;2024-03-25T14:21:35;11.10;97.90
37240;DHT22;23130;48.760;9.178;2024-03-25T14:24:01;11.20;98.00
37240;DHT22;23130;48.760;9.178;2024-03-25T14:26:27;11.10;97.70
37240;DHT22;23130;48.760;9.178;2024-03-25T14:28:52;11.10;97.30
37240;DHT22;23130;48.760;9.178;2024-03-25T14:31:18;11.10;98.20
37240;DHT22;23130;48.760;9.178;2024-03-25T14:33:44;11.10;97.80
37240;DHT22;23130;48.760;9.178;2024-03-25T14:36:10;11.10;98.70
37240;DHT22;23130;48.760;9.178;2024-03-25T14:38:36;11.10;98.80
37240;DHT22;23130;48.760;9.178;2024-03-25T14:41:04;11.10;98.90
37240;DHT22;23130;48.760;9.178;2024-03-25T14:43:30;11.20;98.30
37240;DHT22;23130;48.760;9.178;2024-03-25T14:45:55;11.20;98.10
37240;DHT22;23130;48.760;9.178;2024-03-25T14:48:21;11.20;97.80
37240;DHT22;23130;48.760;9.178;2024-03-25T14:50:47;11.20;98.00
37240;DHT22;23130;48.760;9.178;2024-03-25T14:53:13;11.20;98.30
37240;DHT22;23130;48.760;9.178;2024-03-25T14:55:41;11.30;97.50
37240;DHT22;23130;48.760;9.178;2024-03-25T14:58:06;11.40;97.70
37240;DHT22;23130;48.760;9.178;2024-03-25T15:00:32;11.30;97.90
37240;DHT22;23130;48.760;9.178;2024-03-25T15:02:57;11.30;97.70
37240;DHT22;23130;48.760;9.178;2024-03-25T15:05:24;11.20;98.40
37240;DHT22;23130;48.760;9.178;2024-03-25T15:07:49;11.20;97.70
37240;DHT22;23130;48.760;9.178;2024-03-25T15:10:16;11.20;97.70
37240;DHT22;23130;48.760;9.178;2024-03-25T15:12:42;11.10;98.00
37240;DHT22;23130;48.760;9.178;2024-03-25T15:15:07;11.00;97.60
37240;DHT22;23130;48.760;9.178;2024-03-25T15:17:34;11.00;97.70
37240;DHT22;23130;48.760;9.178;2024-03-25T15:19:59;11.10;97.90
37240;DHT22;23130;48.760;9.178;2024-03-25T15:22:25;11.10;98.20
37240;DHT22;23130;48.760;9.178;2024-03-25T15:24:52;11.20;97.30
37240;DHT22;23130;48.760;9.178;2024-03-25T15:27:17;11.20;97.10
37240;DHT22;23130;48.760;9.178;2024-03-25T15:29:43;11.20;96.80
37240;DHT22;23130;48.760;9.178;2024-03-25T15:32:08;11.30;97.10
37240;DHT22;23130;48.760;9.178;2024-03-25T15:34:33;11.30;97.40